Time;durP1;ratioP1;P1;durP2;ratioP2;P2;SDS_P1;SDS_P2;PMS_P1;PMS_P2;Temp;Humidity;BMP_temperature;BMP_pressure;BME280_temperature;BME280_humidity;BME280_pressure;Samples;Min_cycle;Max_cycle;Signal;HPM_P1;HPM_P2
2024/04/11 00:01:41;;;;;;;1.80;1.30;;;;;;;7.62;100.00;93416.50;5486253;26;20009;-81
2024/04/11 00:04:08;;;;;;;2.03;1.00;;;;;;;7.63;100.00;93418.06;5474620;26;20465;-80
2024/04/11 00:06:33;;;;;;;2.45;1.20;;;;;;;7.66;100.00;93417.59;5486474;26;19998;-80
2024/04/11 00:08:59;;;;;;;3.13;1.10;;;;;;;7.70;100.00;93418.66;5485076;26;20009;-81
2024/04/11 00:11:25;;;;;;;1.45;1.17;;;;;;;7.71;100.00;93415.81;5479446;26;19998;-81
2024/04/11 00:13:52;;;;;;;2.22;1.25;;;;;;;7.71;100.00;93423.63;5485932;26;20915;-81
2024/04/11 00:16:18;;;;;;;1.83;1.20;;;;;;;7.71;100.00;93433.28;5484849;26;20017;-79
2024/04/11 00:18:44;;;;;;;2.17;1.17;;;;;;;7.67;100.00;93438.19;5484127;26;19998;-80
2024/04/11 00:21:11;;;;;;;1.52;1.10;;;;;;;7.64;100.00;93436.06;5483765;26;20075;-81
2024/04/11 00:23:37;;;;;;;2.08;1.23;;;;;;;7.68;100.00;93429.34;5470202;26;20010;-79
2024/04/11 00:26:04;;;;;;;2.70;1.15;;;;;;;7.67;100.00;93413.94;5484326;26;19998;-79
2024/04/11 00:28:30;;;;;;;1.33;1.10;;;;;;;7.68;100.00;93421.53;5480957;26;20067;-79
2024/04/11 00:30:55;;;;;;;1.95;1.17;;;;;;;7.69;100.00;93428.28;5483810;26;20018;-79
2024/04/11 00:33:21;;;;;;;6.47;1.55;;;;;;;7.70;100.00;93419.47;5479870;26;20050;-80
2024/04/11 00:35:49;;;;;;;1.30;1.20;;;;;;;7.72;100.00;93421.81;5483241;26;20604;-79
2024/04/11 00:38:17;;;;;;;1.58;1.30;;;;;;;7.73;100.00;93420.78;5488371;26;20453;-79
2024/04/11 00:40:52;;;;;;;1.38;1.08;;;;;;;7.76;100.00;93422.13;5486708;26;20013;-80
2024/04/11 00:43:18;;;;;;;1.55;1.08;;;;;;;7.77;100.00;93434.09;5481650;26;19998;-80
2024/04/11 00:45:47;;;;;;;1.42;1.00;;;;;;;7.78;100.00;93425.25;5481628;26;20110;-80
2024/04/11 00:48:18;;;;;;;2.25;1.10;;;;;;;7.81;100.00;93430.75;5484237;26;19994;-80
2024/04/11 00:50:46;;;;;;;2.22;1.10;;;;;;;7.82;100.00;93436.78;5487496;26;20006;-79
2024/04/11 00:53:13;;;;;;;1.92;1.15;;;;;;;7.86;100.00;93428.22;5486619;26;20022;-80
2024/04/11 00:55:41;;;;;;;1.13;1.00;;;;;;;7.86;100.00;93420.41;5443418;26;20014;-79
2024/04/11 00:58:11;;;;;;;1.10;1.00;;;;;;;7.90;100.00;93431.09;5483473;26;20010;-79
2024/04/11 01:00:38;;;;;;;0.98;0.93;;;;;;;7.87;100.00;93436.81;5486964;26;20005;-80
2024/04/11 01:03:04;;;;;;;2.40;1.20;;;;;;;7.82;100.00;93432.34;5489141;26;19998;-80
2024/04/11 01:05:34;;;;;;;1.27;0.93;;;;;;;7.83;100.00;93435.72;5487233;26;20006;-81
2024/04/11 01:08:07;;;;;;;1.42;1.08;;;;;;;7.83;100.00;93439.13;5477205;26;20042;-80
2024/04/11 01:10:33;;;;;;;1.30;1.00;;;;;;;7.85;100.00;93425.84;5481027;26;20009;-80
2024/04/11 01:12:59;;;;;;;1.10;1.00;;;;;;;7.84;100.00;93429.50;5482506;26;20078;-79
2024/04/11 01:15:25;;;;;;;5.18;1.30;;;;;;;7.83;100.00;93433.13;5487521;26;20038;-80
2024/04/11 01:17:51;;;;;;;1.80;1.10;;;;;;;7.81;100.00;93440.41;5485751;26;20013;-80
2024/04/11 01:20:17;;;;;;;0.90;0.85;;;;;;;7.79;100.00;93443.28;5486139;26;19998;-80
2024/04/11 01:22:42;;;;;;;1.73;1.20;;;;;;;7.76;100.00;93448.97;5486117;26;20010;-79
2024/04/11 01:25:08;;;;;;;1.40;0.95;;;;;;;7.77;100.00;93437.50;5484963;26;20380;-80
2024/04/11 01:27:35;;;;;;;2.42;1.17;;;;;;;7.69;100.00;93433.50;5484269;26;20042;-80
2024/04/11 01:30:04;;;;;;;1.05;1.00;;;;;;;7.76;100.00;93437.75;5482685;26;19999;-77
2024/04/11 01:32:30;;;;;;;3.33;1.23;;;;;;;7.74;100.00;93426.78;5488598;26;19998;-80
2024/04/11 01:34:56;;;;;;;2.20;1.10;;;;;;;7.74;100.00;93426.78;5486233;26;20023;-81
2024/04/11 01:37:23;;;;;;;1.33;1.00;;;;;;;7.78;100.00;93441.69;5484760;26;20020;-80
2024/04/11 01:39:49;;;;;;;3.00;1.17;;;;;;;7.78;100.00;93446.13;5488184;26;19998;-78
2024/04/11 01:42:15;;;;;;;2.13;1.17;;;;;;;7.82;100.00;93457.63;5484577;26;20008;-80
2024/04/11 01:44:40;;;;;;;1.80;1.17;;;;;;;7.87;100.00;93460.28;5487415;26;20062;-80
2024/04/11 01:47:06;;;;;;;1.67;1.08;;;;;;;7.88;100.00;93454.03;5483562;26;20475;-80
2024/04/11 01:49:32;;;;;;;1.58;1.20;;;;;;;7.88;100.00;93456.63;5479987;26;20485;-80
2024/04/11 01:51:58;;;;;;;1.50;0.80;;;;;;;7.84;100.00;93448.53;5485863;26;19994;-80
2024/04/11 01:54:23;;;;;;;2.25;1.00;;;;;;;7.82;100.00;93457.63;5486779;26;20085;-80
2024/04/11 01:56:49;;;;;;;1.13;0.82;;;;;;;7.81;100.00;93445.63;5484443;26;20002;-79
2024/04/11 01:59:16;;;;;;;1.45;1.08;;;;;;;7.79;100.00;93440.66;5481727;26;20006;-80
2024/04/11 02:01:42;;;;;;;2.35;1.10;;;;;;;7.79;100.00;93437.25;5487466;26;20041;-80
2024/04/11 02:04:09;;;;;;;1.92;1.50;;;;;;;7.78;100.00;93446.13;5485572;26;20054;-80
2024/04/11 02:06:36;;;;;;;2.47;1.42;;;;;;;7.72;100.00;93438.25;5485606;26;20395;-79
2024/04/11 02:09:09;;;;;;;5.43;1.13;;;;;;;7.74;100.00;93443.19;5483686;26;20010;-80
2024/04/11 02:11:46;;;;;;;1.65;1.10;;;;;;;7.74;100.00;93442.41;5470259;26;20012;-80
2024/04/11 02:14:12;;;;;;;1.10;1.00;;;;;;;7.74;100.00;93437.22;5486001;26;19998;-80
2024/04/11 02:16:38;;;;;;;1.42;1.08;;;;;;;7.74;100.00;93439.81;5476690;26;20066;-80
2024/04/11 02:19:07;;;;;;;1.25;1.10;;;;;;;7.69;100.00;93430.13;5484667;26;20070;-79
2024/04/11 02:21:41;;;;;;;2.67;1.20;;;;;;;7.74;100.00;93447.63;5484508;26;20006;-80
2024/04/11 02:24:08;;;;;;;1.73;1.10;;;;;;;7.75;100.00;93441.41;5482794;26;19990;-80
2024/04/11 02:26:36;;;;;;;2.15;1.20;;;;;;;7.74;100.00;93438.00;5477258;26;19994;-78
2024/04/11 02:29:04;;;;;;;2.03;1.20;;;;;;;7.75;100.00;93444.78;5489343;26;19990;-80
2024/04/11 02:31:31;;;;;;;2.47;1.30;;;;;;;7.75;100.00;93450.00;5491450;26;20030;-80
2024/04/11 02:34:00;;;;;;;2.10;1.17;;;;;;;7.76;100.00;93448.97;5460980;26;20461;-78
2024/04/11 02:36:29;;;;;;;5.38;1.05;;;;;;;7.79;100.00;93442.47;5488532;26;19993;-80
2024/04/11 02:38:56;;;;;;;1.75;1.20;;;;;;;7.87;100.00;93449.84;5486464;26;20010;-80
2024/04/11 02:41:22;;;;;;;1.75;1.10;;;;;;;7.87;100.00;93447.25;5451243;26;20038;-81
2024/04/11 02:43:48;;;;;;;2.50;1.10;;;;;;;7.84;100.00;93435.50;5485358;26;19994;-79
2024/04/11 02:46:17;;;;;;;0.90;0.80;;;;;;;7.87;100.00;93431.59;5468826;26;20006;-79
2024/04/11 02:48:44;;;;;;;1.80;1.10;;;;;;;7.90;100.00;93434.53;5486273;26;19998;-80
2024/04/11 02:51:11;;;;;;;1.23;1.00;;;;;;;7.92;100.00;93431.66;5486209;26;20002;-80
2024/04/11 02:53:40;;;;;;;3.58;1.10;;;;;;;8.10;100.00;93439.13;5472814;26;20430;-80
2024/04/11 02:56:07;;;;;;;2.03;0.90;;;;;;;8.17;100.00;93438.13;5485278;26;19994;-80
2024/04/11 02:58:34;;;;;;;1.58;1.13;;;;;;;8.17;100.00;93440.75;5484149;26;20456;-80
2024/04/11 03:01:00;;;;;;;2.17;1.15;;;;;;;8.13;100.00;93433.44;5480751;26;20330;-80
2024/04/11 03:03:26;;;;;;;1.73;1.20;;;;;;;8.09;100.00;93437.56;5484177;26;20075;-79
2024/04/11 03:05:51;;;;;;;2.63;0.90;;;;;;;8.06;100.00;93439.84;5485754;26;20010;-79
2024/04/11 03:08:19;;;;;;;1.48;1.00;;;;;;;8.02;100.00;93436.19;5483881;26;20005;-79
2024/04/11 03:10:44;;;;;;;3.35;1.05;;;;;;;8.01;100.00;93455.47;5473605;26;20002;-78
2024/04/11 03:13:10;;;;;;;3.03;1.08;;;;;;;8.07;100.00;93454.50;5474672;26;20366;-79
2024/04/11 03:15:36;;;;;;;1.98;1.10;;;;;;;8.03;100.00;93462.00;5483886;26;20013;-81
2024/04/11 03:18:01;;;;;;;1.85;1.00;;;;;;;7.98;100.00;93461.97;5480933;26;19998;-79
2024/04/11 03:20:27;;;;;;;1.60;1.10;;;;;;;7.91;100.00;93461.38;5478987;26;20496;-81
2024/04/11 03:22:52;;;;;;;1.58;1.17;;;;;;;7.86;100.00;93458.72;5480611;26;20007;-79
2024/04/11 03:25:19;;;;;;;2.72;1.13;;;;;;;7.81;100.00;93456.81;5474201;26;20009;-81
2024/04/11 03:27:44;;;;;;;1.75;1.00;;;;;;;7.77;100.00;93454.94;5476320;26;20491;-80
2024/04/11 03:30:10;;;;;;;6.22;1.30;;;;;;;7.75;100.00;93449.22;5484516;26;20002;-80
2024/04/11 03:32:36;;;;;;;1.40;1.10;;;;;;;7.67;100.00;93440.00;5481663;26;20402;-79
2024/04/11 03:35:03;;;;;;;0.88;0.70;;;;;;;7.70;100.00;93445.53;5485127;26;20002;-80
2024/04/11 03:37:29;;;;;;;1.88;1.10;;;;;;;7.70;100.00;93448.13;5487495;26;19998;-80
2024/04/11 03:39:57;;;;;;;1.85;1.10;;;;;;;7.68;100.00;93458.00;5486048;26;20002;-80
2024/04/11 03:42:24;;;;;;;1.17;0.90;;;;;;;7.67;100.00;93460.84;5472793;26;20298;-80
2024/04/11 03:44:51;;;;;;;1.48;1.10;;;;;;;7.66;100.00;93474.94;5454803;26;20078;-80
2024/04/11 03:47:21;;;;;;;1.77;1.30;;;;;;;7.59;100.00;93480.31;5485238;26;20390;-79
2024/04/11 03:49:52;;;;;;;2.38;1.00;;;;;;;7.65;100.00;93492.34;5479552;26;20002;-79
2024/04/11 03:52:17;;;;;;;1.77;1.10;;;;;;;7.60;100.00;93479.28;5477461;26;20417;-81
2024/04/11 03:54:43;;;;;;;2.22;1.10;;;;;;;7.55;100.00;93470.63;5483920;26;20022;-80
2024/04/11 03:57:09;;;;;;;3.00;1.10;;;;;;;7.48;100.00;93463.78;5486536;26;20440;-80
2024/04/11 03:59:36;;;;;;;1.42;1.00;;;;;;;7.49;100.00;93469.75;5492939;25;20013;-81
2024/04/11 04:02:02;;;;;;;1.42;1.00;;;;;;;7.48;100.00;93468.97;5503843;25;20001;-83
2024/04/11 04:04:28;;;;;;;2.13;1.00;;;;;;;7.50;100.00;93471.34;5502481;25;19995;-82
2024/04/11 04:06:54;;;;;;;4.20;1.40;;;;;;;7.51;100.00;93467.72;5498827;26;20044;-81
2024/04/11 04:09:21;;;;;;;1.65;1.10;;;;;;;7.53;100.00;93459.66;5502650;26;20009;-81
2024/04/11 04:11:46;;;;;;;3.78;1.23;;;;;;;7.54;100.00;93462.00;5501491;26;19994;-82
2024/04/11 04:14:13;;;;;;;1.75;1.10;;;;;;;7.55;100.00;93463.59;5506791;26;20432;-81
2024/04/11 04:16:39;;;;;;;1.85;1.05;;;;;;;7.51;100.00;93458.06;5476130;26;19983;-81
2024/04/11 04:19:05;;;;;;;2.35;1.20;;;;;;;7.44;100.00;93456.69;5502178;26;20002;-80
2024/04/11 04:21:35;;;;;;;2.15;1.02;;;;;;;7.38;100.00;93453.22;5502440;26;20031;-80
2024/04/11 04:24:02;;;;;;;2.72;1.17;;;;;;;7.42;100.00;93461.34;5499516;26;20014;-82
2024/04/11 04:26:30;;;;;;;4.70;1.30;;;;;;;7.36;100.00;93470.13;5483334;26;20022;-80
2024/04/11 04:28:57;;;;;;;1.77;1.10;;;;;;;7.50;100.00;93481.78;5485183;26;20055;-81
2024/04/11 04:31:30;;;;;;;1.75;1.08;;;;;;;7.51;100.00;93483.34;5487509;26;20018;-82
2024/04/11 04:33:58;;;;;;;1.10;0.98;;;;;;;7.44;100.00;93474.91;5488965;26;20341;-80
2024/04/11 04:36:31;;;;;;;2.90;1.40;;;;;;;7.36;100.00;93470.91;5477026;26;20044;-81
2024/04/11 04:38:58;;;;;;;1.73;1.20;;;;;;;7.30;100.00;93475.28;5477797;26;20059;-80
2024/04/11 04:41:28;;;;;;;1.63;1.00;;;;;;;7.25;100.00;93477.81;5488334;26;20002;-82
2024/04/11 04:43:55;;;;;;;2.08;1.20;;;;;;;7.22;100.00;93477.50;5489847;26;20442;-81
2024/04/11 04:46:34;;;;;;;4.85;1.15;;;;;;;7.19;100.00;93470.19;5486693;26;20014;-82
2024/04/11 04:49:02;;;;;;;2.15;1.33;;;;;;;7.12;100.00;93470.34;5484342;26;20013;-81
2024/04/11 04:51:31;;;;;;;2.20;1.40;;;;;;;7.12;100.00;93480.00;5481049;26;20013;-82
2024/04/11 04:53:59;;;;;;;2.63;1.30;;;;;;;7.07;100.00;93478.88;5478756;26;20012;-81
2024/04/11 04:56:28;;;;;;;5.68;1.50;;;;;;;7.07;100.00;93501.53;5479863;26;19994;-80
2024/04/11 04:58:54;;;;;;;2.65;1.40;;;;;;;7.03;100.00;93487.41;5484260;26;20552;-81
2024/04/11 05:01:21;;;;;;;2.55;1.50;;;;;;;7.07;100.00;93494.50;5479231;26;20009;-81
2024/04/11 05:03:46;;;;;;;4.05;1.90;;;;;;;7.08;100.00;93485.66;5473836;26;19998;-80
2024/04/11 05:06:13;;;;;;;3.95;1.50;;;;;;;7.10;100.00;93482.81;5475775;26;20006;-80
2024/04/11 05:08:46;;;;;;;3.25;1.60;;;;;;;7.09;100.00;93487.25;5482717;26;20457;-79
2024/04/11 05:11:14;;;;;;;;;;;;;;;7.12;100.00;93485.97;5477849;26;19998;-80
2024/04/11 05:13:41;;;;;;;2.45;1.30;;;;;;;7.16;100.00;93487.06;5449906;26;19932;-79
2024/04/11 05:16:08;;;;;;;2.70;1.30;;;;;;;7.22;100.00;93490.53;5483509;26;20954;-80
2024/04/11 05:18:37;;;;;;;1.73;1.15;;;;;;;7.32;100.00;93495.06;5488165;26;20046;-81
2024/04/11 05:21:32;;;;;;;2.30;1.42;;;;;;;7.42;100.00;93490.00;5484735;26;19997;-79
2024/04/11 05:23:57;;;;;;;2.03;1.35;;;;;;;7.57;100.00;93490.19;5489732;26;20063;-80
2024/04/11 05:26:24;;;;;;;3.63;1.70;;;;;;;7.69;100.00;93496.06;5495600;26;20026;-81
2024/04/11 05:28:53;;;;;;;3.95;1.60;;;;;;;7.84;100.00;93507.72;5495969;26;19998;-82
2024/04/11 05:31:25;;;;;;;5.05;1.42;;;;;;;8.05;100.00;93508.72;5477062;26;19995;-82
2024/04/11 05:33:55;;;;;;;2.58;1.40;;;;;;;8.20;100.00;93501.03;5496962;26;20005;-80
2024/04/11 05:36:28;;;;;;;2.72;1.50;;;;;;;8.33;100.00;93500.66;5489045;26;19990;-81
2024/04/11 05:38:54;;;;;;;4.10;1.65;;;;;;;8.48;100.00;93501.84;5494864;26;20022;-82
2024/04/11 05:41:20;;;;;;;4.20;1.50;;;;;;;8.61;100.00;93498.03;5491304;26;20013;-82
2024/04/11 05:43:49;;;;;;;3.90;1.60;;;;;;;8.75;100.00;93504.41;5494898;26;20030;-82
2024/04/11 05:46:22;;;;;;;4.55;1.58;;;;;;;8.89;100.00;93510.00;5497795;26;20078;-82
2024/04/11 05:48:54;;;;;;;3.20;1.23;;;;;;;9.14;100.00;93512.00;5489802;26;20017;-80
2024/04/11 05:51:21;;;;;;;2.47;1.30;;;;;;;9.27;100.00;93513.38;5453156;26;20349;-81
2024/04/11 05:53:48;;;;;;;3.95;1.40;;;;;;;9.50;100.00;93518.22;5494365;26;20013;-82
2024/04/11 05:56:14;;;;;;;1.98;1.20;;;;;;;9.70;100.00;93527.97;5487001;26;20493;-82
2024/04/11 05:58:42;;;;;;;2.15;1.20;;;;;;;9.88;100.00;93524.13;5493071;26;20575;-82
2024/04/11 06:01:09;;;;;;;1.25;1.08;;;;;;;10.15;100.00;93531.81;5494713;26;20013;-82
2024/04/11 06:03:40;;;;;;;2.03;1.05;;;;;;;10.31;98.15;93526.66;5489903;26;20005;-80
2024/04/11 06:06:19;;;;;;;1.20;1.00;;;;;;;10.65;97.93;93526.19;5482770;26;20023;-81
2024/04/11 06:08:46;;;;;;;5.40;1.30;;;;;;;10.73;97.16;93523.06;5488807;26;19998;-82
2024/04/11 06:11:19;;;;;;;3.00;1.20;;;;;;;10.83;96.61;93523.06;5494477;26;20543;-82
2024/04/11 06:13:48;;;;;;;1.67;1.10;;;;;;;11.06;100.00;93527.00;5473238;26;20092;-81
2024/04/11 06:16:15;;;;;;;1.77;1.08;;;;;;;11.99;91.71;93532.84;5488188;26;19998;-82
2024/04/11 06:18:40;;;;;;;3.08;1.80;;;;;;;13.22;87.05;93532.84;5485389;26;20002;-82
2024/04/11 06:21:07;;;;;;;2.92;1.40;;;;;;;14.28;78.09;93526.72;5493169;26;19998;-81
2024/04/11 06:23:33;;;;;;;2.58;1.45;;;;;;;15.35;76.81;93531.50;5491021;26;20005;-81
2024/04/11 06:25:59;;;;;;;3.75;1.20;;;;;;;15.97;65.57;93536.50;5492311;26;20006;-80
2024/04/11 06:28:24;;;;;;;1.38;1.00;;;;;;;16.55;64.48;93535.06;5462895;26;20056;-81
2024/04/11 06:30:56;;;;;;;3.30;1.48;;;;;;;17.38;60.68;93538.22;5492981;26;19998;-82
2024/04/11 06:33:22;;;;;;;1.52;1.13;;;;;;;18.21;52.25;93540.28;5479748;26;20456;-82
2024/04/11 06:35:58;;;;;;;3.13;1.23;;;;;;;18.36;47.15;93547.06;5492733;26;20013;-83
2024/04/11 06:38:24;;;;;;;3.05;1.42;;;;;;;18.48;47.29;93536.63;5488735;26;19998;-84
2024/04/11 06:40:53;;;;;;;3.53;1.17;;;;;;;18.89;48.88;93542.63;5494302;26;20038;-83
2024/04/11 06:43:21;;;;;;;2.47;1.00;;;;;;;19.28;48.39;93541.66;5513537;25;19991;-82
2024/04/11 06:45:48;;;;;;;3.03;1.08;;;;;;;19.49;49.51;93539.13;5489284;26;19998;-83
2024/04/11 06:48:15;;;;;;;2.30;1.10;;;;;;;19.79;48.14;93551.75;5487646;26;20002;-81
2024/04/11 06:50:40;;;;;;;2.88;1.02;;;;;;;20.21;46.94;93546.59;5475849;26;20532;-82
2024/04/11 06:53:09;;;;;;;1.95;1.02;;;;;;;20.64;45.11;93548.25;5486961;26;20343;-81
2024/04/11 06:55:35;;;;;;;5.78;2.58;;;;;;;21.12;41.91;93546.94;5494986;26;20002;-81
2024/04/11 06:58:01;;;;;;;5.22;1.63;;;;;;;21.88;39.72;93551.09;5490545;26;20497;-80
2024/04/11 07:00:36;;;;;;;3.10;1.25;;;;;;;21.10;41.43;93549.97;5487336;26;20020;-83
2024/04/11 07:03:25;;;;;;;4.43;1.30;;;;;;;20.50;44.38;93557.22;5479019;26;22374;-82
2024/04/11 07:05:57;;;;;;;3.63;1.38;;;;;;;19.83;44.49;93565.94;5494950;26;19998;-80
2024/04/11 07:08:31;;;;;;;2.55;1.15;;;;;;;18.48;53.19;93560.47;5492621;26;20010;-82
2024/04/11 07:11:48;;;;;;;2.22;1.27;;;;;;;17.65;54.67;93562.94;5492436;26;19994;-82
2024/04/11 07:13:55;;;;;;;2.55;1.17;;;;;;;17.52;56.72;93556.66;5498204;26;20009;-81
2024/04/11 07:16:26;;;;;;;3.28;1.40;;;;;;;17.39;55.62;93562.81;5460128;26;20006;-82
2024/04/11 07:18:55;;;;;;;3.80;1.30;;;;;;;16.82;57.04;93574.69;5493205;26;20074;-81
2024/04/11 07:21:26;;;;;;;3.40;1.48;;;;;;;17.07;58.93;93569.91;5492639;26;19994;-81
2024/04/11 07:23:57;;;;;;;5.47;2.05;;;;;;;17.11;56.79;93578.00;5494661;26;20048;-82
2024/04/11 07:26:38;;;;;;;2.22;1.30;;;;;;;16.44;58.07;93582.84;5489727;26;20001;-80
2024/04/11 07:29:05;;;;;;;2.53;1.33;;;;;;;16.75;59.11;93582.22;5494495;26;19994;-82
2024/04/11 07:31:36;;;;;;;4.53;1.48;;;;;;;16.39;62.33;93582.97;5493688;26;20012;-82
2024/04/11 07:34:02;;;;;;;4.63;1.85;;;;;;;16.21;63.68;93586.47;5485010;26;20451;-81
2024/04/11 07:36:48;;;;;;;4.53;1.30;;;;;;;15.87;67.88;93587.63;5486717;26;19998;-82
2024/04/11 07:39:13;;;;;;;4.72;1.42;;;;;;;16.00;65.77;93594.00;5493919;26;20010;-82
2024/04/11 07:41:46;;;;;;;3.33;1.15;;;;;;;16.25;69.24;93587.44;5490480;26;20013;-81
2024/04/11 07:44:17;;;;;;;6.93;1.60;;;;;;;16.46;64.98;93593.13;5491520;26;20049;-82
2024/04/11 07:46:44;;;;;;;5.53;1.77;;;;;;;15.89;69.56;93601.31;5477909;26;20002;-81
2024/04/11 07:49:11;;;;;;;3.47;1.60;;;;;;;15.87;66.69;93600.06;5490018;26;20017;-80
2024/04/11 07:51:37;;;;;;;3.15;1.25;;;;;;;15.74;66.04;93596.34;5490865;26;20355;-80
2024/04/11 07:54:13;;;;;;;2.80;1.30;;;;;;;15.44;65.12;93592.31;5476738;26;20402;-81
2024/04/11 07:56:39;;;;;;;3.47;1.17;;;;;;;15.74;62.57;93612.16;5481235;26;20041;-79
2024/04/11 07:59:13;;;;;;;1.85;1.20;;;;;;;15.53;67.83;93601.13;5492302;26;20135;-80
2024/04/11 08:01:41;;;;;;;1.95;1.15;;;;;;;15.56;67.37;93611.91;5488519;26;20043;-81
2024/04/11 08:04:07;;;;;;;2.75;1.42;;;;;;;15.69;65.86;93605.06;5489688;26;20040;-82
2024/04/11 08:06:36;;;;;;;3.05;1.33;;;;;;;15.92;66.56;93608.69;5496473;26;20002;-82
2024/04/11 08:09:09;;;;;;;5.38;1.63;;;;;;;16.18;61.74;93610.84;5489710;26;20001;-82
2024/04/11 08:11:35;;;;;;;2.70;1.45;;;;;;;16.32;61.34;93606.34;5492495;26;19998;-80
2024/04/11 08:14:05;;;;;;;2.85;1.30;;;;;;;16.06;59.96;93618.47;5487921;26;20002;-80
2024/04/11 08:16:36;;;;;;;2.53;1.20;;;;;;;16.25;64.98;93621.78;5483430;26;20055;-82
2024/04/11 08:19:04;;;;;;;3.30;1.50;;;;;;;16.40;62.83;93626.00;5487580;26;20002;-81
2024/04/11 08:21:31;;;;;;;4.57;1.50;;;;;;;16.52;68.70;93630.81;5478545;26;20490;-81
2024/04/11 08:24:03;;;;;;;3.35;1.58;;;;;;;16.54;66.18;93624.13;5491154;26;20002;-82
2024/04/11 08:26:29;;;;;;;2.53;1.23;;;;;;;16.59;61.17;93631.97;5486335;26;19995;-79
2024/04/11 08:29:03;;;;;;;6.15;2.25;;;;;;;16.31;64.81;93636.47;5485270;26;20468;-82
2024/04/11 08:31:30;;;;;;;4.45;1.90;;;;;;;16.46;58.97;93632.78;5467556;26;19998;-81
2024/04/11 08:33:59;;;;;;;4.40;1.67;;;;;;;16.50;63.91;93641.66;5492511;26;20098;-80
2024/04/11 08:36:26;;;;;;;3.67;1.38;;;;;;;16.50;58.85;93646.16;5485712;26;20082;-78
2024/04/11 08:38:59;;;;;;;4.07;1.48;;;;;;;16.34;59.12;93638.53;5484753;26;20465;-83
2024/04/11 08:41:25;;;;;;;3.67;1.40;;;;;;;15.94;60.31;93648.78;5491005;26;19998;-81
2024/04/11 08:43:56;;;;;;;5.75;1.23;;;;;;;16.02;61.52;93647.31;5479608;26;20341;-82
2024/04/11 08:46:22;;;;;;;4.90;1.42;;;;;;;16.10;62.74;93645.84;5475357;26;20010;-83
2024/04/11 08:48:48;;;;;;;3.15;1.30;;;;;;;16.17;57.51;93651.56;5491563;26;19995;-83
2024/04/11 08:51:22;;;;;;;3.58;1.60;;;;;;;16.26;55.70;93649.00;5493081;26;20342;-82
2024/04/11 08:53:54;;;;;;;2.60;1.30;;;;;;;16.23;56.57;93656.44;5460579;26;19987;-84
2024/04/11 08:56:22;;;;;;;2.08;1.13;;;;;;;16.38;60.25;93652.72;5476571;26;20003;-80
2024/04/11 08:58:48;;;;;;;4.93;1.40;;;;;;;16.20;61.28;93656.25;5480526;26;19998;-83
2024/04/11 09:01:18;;;;;;;3.10;1.67;;;;;;;16.36;62.76;93654.88;5462037;26;20043;-82
2024/04/11 09:03:48;;;;;;;3.13;1.20;;;;;;;16.33;59.64;93655.47;5492986;26;19998;-82
2024/04/11 09:06:28;;;;;;;2.17;1.27;;;;;;;16.24;60.84;93655.38;5494722;26;19994;-83
2024/04/11 09:08:56;;;;;;;2.40;1.30;;;;;;;16.71;63.93;93660.56;5481143;26;20009;-83
2024/04/11 09:11:25;;;;;;;3.28;1.38;;;;;;;16.68;63.02;93658.47;5481444;26;20042;-82
2024/04/11 09:13:51;;;;;;;7.45;1.77;;;;;;;16.70;60.33;93663.50;5485661;26;20007;-82
2024/04/11 09:16:27;;;;;;;4.05;1.33;;;;;;;16.73;66.70;93663.69;5494979;26;20007;-80
2024/04/11 09:19:11;;;;;;;2.25;1.30;;;;;;;16.75;64.11;93658.91;5489777;26;20314;-83
2024/04/11 09:21:46;;;;;;;2.92;1.10;;;;;;;16.47;63.20;93652.06;5494209;26;19990;-83
2024/04/11 09:24:16;;;;;;;2.92;1.40;;;;;;;16.57;57.95;93649.19;5495516;26;20012;-82
2024/04/11 09:26:47;;;;;;;3.20;1.40;;;;;;;16.74;62.13;93654.66;5493978;26;20538;-81
2024/04/11 09:29:13;;;;;;;3.28;1.55;;;;;;;16.74;60.04;93659.97;5486461;26;20039;-82
2024/04/11 09:31:42;;;;;;;2.63;1.20;;;;;;;16.85;60.35;93664.00;5491894;26;19994;-82
2024/04/11 09:34:12;;;;;;;3.50;1.33;;;;;;;16.94;62.72;93665.94;5476839;26;20003;-82
2024/04/11 09:36:52;;;;;;;3.15;1.38;;;;;;;17.06;63.87;93660.91;5483065;26;20004;-82
2024/04/11 09:42:18;;;;;;;2.60;1.25;;;;;;;17.13;56.42;93671.09;5489421;26;20010;-81
2024/04/11 09:44:52;;;;;;;1.95;1.10;;;;;;;17.24;56.38;93670.56;5493481;26;19998;-80
2024/04/11 09:47:26;;;;;;;2.25;1.20;;;;;;;17.27;55.88;93675.28;5493047;26;19998;-82
2024/04/11 09:49:55;;;;;;;4.97;1.55;;;;;;;17.10;57.99;93679.63;5487766;26;20002;-81
2024/04/11 09:52:27;;;;;;;2.38;1.20;;;;;;;17.04;59.19;93686.88;5493330;26;19998;-81
2024/04/11 09:55:10;;;;;;;1.95;1.00;;;;;;;17.31;54.25;93679.97;5493935;26;20001;-82
2024/04/11 09:57:44;;;;;;;5.55;1.52;;;;;;;17.04;55.96;93685.03;5480255;26;20025;-82
2024/04/11 10:03:03;;;;;;;2.33;1.30;;;;;;;17.46;56.22;93685.69;5485980;26;19994;-81
2024/04/11 10:05:50;;;;;;;3.47;1.40;;;;;;;17.57;57.49;93686.25;5494613;26;20009;-80
2024/04/11 10:08:33;;;;;;;3.28;1.17;;;;;;;17.77;56.66;93692.94;5463933;26;20431;-80
2024/04/11 10:11:17;;;;;;;4.15;1.52;;;;;;;17.72;58.84;93692.25;5476554;26;20074;-83
2024/04/11 10:13:45;;;;;;;4.78;1.40;;;;;;;17.72;53.33;93686.97;5493877;26;19998;-81
2024/04/11 10:16:31;;;;;;;4.00;1.58;;;;;;;17.73;54.79;93691.19;5493329;26;20010;-81
2024/04/11 10:19:04;;;;;;;3.38;1.40;;;;;;;17.60;55.54;93685.66;5495334;26;20002;-81
2024/04/11 10:21:32;;;;;;;7.43;1.83;;;;;;;17.70;56.32;93689.94;5497211;26;19994;-82
2024/04/11 10:23:58;;;;;;;2.60;1.20;;;;;;;17.56;58.88;93690.00;5479782;26;20043;-81
2024/04/11 10:26:34;;;;;;;1.90;1.27;;;;;;;17.78;59.63;93691.84;5470121;26;19998;-80
2024/04/11 10:29:26;;;;;;;4.07;1.20;;;;;;;17.62;60.10;93688.78;5496920;26;20106;-81
2024/04/11 10:31:56;;;;;;;2.50;1.30;;;;;;;17.65;63.41;93687.38;5496238;26;20013;-81
2024/04/11 10:34:34;;;;;;;6.43;1.50;;;;;;;17.71;64.35;93685.41;5487213;26;20014;-81
2024/04/11 10:37:07;;;;;;;2.45;1.45;;;;;;;17.90;64.54;93688.69;5489744;26;20002;-82
2024/04/11 10:39:39;;;;;;;2.65;1.52;;;;;;;17.87;61.54;93689.28;5493139;26;20373;-81
2024/04/11 10:42:10;;;;;;;4.68;1.40;;;;;;;17.90;61.67;93683.41;5494570;26;19998;-81
2024/04/11 10:44:59;;;;;;;3.90;1.40;;;;;;;17.74;60.49;93682.16;5465296;26;19994;-80
2024/04/11 10:47:25;;;;;;;5.97;1.40;;;;;;;17.84;57.40;93676.66;5486923;26;20013;-81
2024/04/11 10:49:55;;;;;;;5.15;1.73;;;;;;;17.76;57.02;93688.72;5483040;26;20008;-81
2024/04/11 10:52:32;;;;;;;1.70;1.13;;;;;;;17.84;61.08;93684.59;5457989;26;20042;-80
2024/04/11 10:55:12;;;;;;;2.92;1.42;;;;;;;17.69;61.81;93675.91;5511289;26;20013;-81
2024/04/11 10:57:44;;;;;;;1.75;1.10;;;;;;;17.96;65.21;93679.53;5480946;26;20398;-81
2024/04/11 11:00:38;;;;;;;5.20;1.70;;;;;;;18.19;59.28;93684.78;5496520;26;19998;-82
2024/04/11 11:03:11;;;;;;;4.72;1.45;;;;;;;18.24;57.76;93687.34;5503797;26;20042;-80
2024/04/11 11:05:42;;;;;;;3.60;1.40;;;;;;;18.33;61.15;93684.69;5494744;26;20344;-80
2024/04/11 11:08:14;;;;;;;8.75;2.03;;;;;;;18.16;61.11;93686.19;5495998;26;20030;-81
2024/04/11 11:10:41;;;;;;;2.35;1.10;;;;;;;18.19;60.21;93690.09;5484761;26;19994;-81
2024/04/11 11:13:08;;;;;;;3.58;1.60;;;;;;;18.23;58.28;93675.16;5496197;26;19994;-80
2024/04/11 11:15:34;;;;;;;2.60;1.40;;;;;;;18.35;61.33;93682.53;5492520;26;20010;-81
2024/04/11 11:17:59;;;;;;;6.13;1.80;;;;;;;18.48;60.43;93674.47;5495513;26;19998;-82
2024/04/11 11:20:26;;;;;;;4.22;1.48;;;;;;;18.38;56.18;93681.94;5486218;26;20003;-80
2024/04/11 11:22:56;;;;;;;3.42;1.50;;;;;;;18.44;56.45;93684.16;5473334;26;19999;-80
2024/04/11 11:25:23;;;;;;;4.65;1.60;;;;;;;18.43;56.31;93679.91;5482035;26;19998;-80
2024/04/11 11:27:51;;;;;;;2.28;1.42;;;;;;;18.62;55.94;93682.34;5471517;26;20018;-81
2024/04/11 11:30:17;;;;;;;5.70;1.70;;;;;;;18.45;61.27;93677.75;5495754;26;20014;-82
2024/04/11 11:32:43;;;;;;;2.55;1.40;;;;;;;18.72;60.76;93675.97;5470510;26;20047;-83
2024/04/11 11:35:12;;;;;;;3.95;1.85;;;;;;;18.94;61.58;93661.88;5495412;26;20018;-81
2024/04/11 11:37:41;;;;;;;3.15;1.50;;;;;;;18.85;60.26;93667.16;5494838;26;20013;-82
2024/04/11 11:42:58;;;;;;;3.72;1.48;;;;;;;18.87;62.18;93654.38;5467276;26;20017;-82
2024/04/11 11:45:28;;;;;;;6.03;1.60;;;;;;;19.00;59.94;93654.53;5493524;26;19998;-81
2024/04/11 11:47:57;;;;;;;3.47;1.55;;;;;;;19.07;59.47;93657.50;5495539;26;20397;-81
2024/04/11 11:50:33;;;;;;;3.17;1.40;;;;;;;19.07;57.03;93649.53;5495815;26;20002;-81
2024/04/11 11:53:24;;;;;;;3.58;1.92;;;;;;;18.96;58.01;93654.38;5493092;26;20002;-81